Time;durP1;ratioP1;P1;durP2;ratioP2;P2;SDS_P1;SDS_P2;PMS_P1;PMS_P2;Temp;Humidity;BMP_temperature;BMP_pressure;BME280_temperature;BME280_humidity;BME280_pressure;Samples;Min_cycle;Max_cycle;Signal;HPM_P1;HPM_P2
2023/03/09 00:00:35;;;;;;;15.05;7.50;;;1.50;99.90;;;;;;6107617;23;20233;-76
2023/03/09 00:03:01;;;;;;;13.55;8.55;;;2.80;99.90;;;;;;6083433;23;20053;-75
2023/03/09 00:05:27;;;;;;;14.23;7.68;;;1.90;99.90;;;;;;6108137;23;20257;-74
2023/03/09 00:07:55;;;;;;;15.75;8.18;;;2.00;99.90;;;;;;6131974;23;20056;-79
2023/03/09 00:10:22;;;;;;;14.70;8.02;;;1.90;99.90;;;;;;6107790;23;20331;-77
2023/03/09 00:12:47;;;;;;;14.60;8.23;;;1.90;99.90;;;;;;6106826;23;20022;-75
2023/03/09 00:15:13;;;;;;;14.50;8.02;;;2.00;99.90;;;;;;6105979;23;20061;-77
2023/03/09 00:17:39;;;;;;;15.85;8.15;;;1.90;99.90;;;;;;6131417;23;20010;-76
2023/03/09 00:20:17;;;;;;;13.48;8.00;;;3.50;99.90;;;;;;6132251;23;20088;-77
2023/03/09 00:22:51;;;;;;;14.35;8.38;;;2.00;99.90;;;;;;6131656;23;20032;-75
2023/03/09 00:25:18;;;;;;;14.98;8.38;;;2.00;99.90;;;;;;6132186;23;20014;-77
2023/03/09 00:27:47;;;;;;;14.98;8.65;;;1.90;99.90;;;;;;6107682;23;20014;-75
2023/03/09 00:30:14;;;;;;;18.20;9.10;;;2.00;99.90;;;;;;6132082;23;20370;-77
2023/03/09 00:32:40;;;;;;;15.27;8.82;;;1.90;99.90;;;;;;6131572;23;20014;-75
2023/03/09 00:35:08;;;;;;;16.45;9.45;;;2.10;99.90;;;;;;6106424;23;20010;-76
2023/03/09 00:37:34;;;;;;;15.30;8.63;;;1.90;99.90;;;;;;6131906;23;20022;-77
2023/03/09 00:40:00;;;;;;;18.80;9.55;;;2.00;99.90;;;;;;6083859;23;20016;-76
2023/03/09 00:42:26;;;;;;;15.18;8.88;;;2.00;99.90;;;;;;6106965;23;20014;-77
2023/03/09 00:44:52;;;;;;;15.68;9.13;;;3.60;99.90;;;;;;6131162;23;20020;-77
2023/03/09 00:47:29;;;;;;;16.83;10.05;;;3.30;99.90;;;;;;6083422;23;20014;-77
2023/03/09 00:49:55;;;;;;;14.50;9.20;;;2.90;99.90;;;;;;6131138;23;20021;-75
2023/03/09 00:52:21;;;;;;;14.82;8.73;;;2.00;99.90;;;;;;6130991;23;20140;-77
2023/03/09 00:54:46;;;;;;;16.40;8.85;;;1.80;99.90;;;;;;6106118;23;20009;-75
2023/03/09 00:57:12;;;;;;;15.10;9.45;;;1.90;99.90;;;;;;6106742;23;20032;-75
2023/03/09 00:59:38;;;;;;;16.17;9.07;;;1.80;99.90;;;;;;6130159;23;20061;-74
2023/03/09 01:02:04;;;;;;;14.35;8.48;;;1.80;99.90;;;;;;6130892;23;20020;-75
2023/03/09 01:04:29;;;;;;;14.77;8.77;;;1.80;99.90;;;;;;6129193;23;20017;-76
2023/03/09 01:06:55;;;;;;;14.15;8.10;;;1.90;99.90;;;;;;6130570;23;20024;-76
2023/03/09 01:09:22;;;;;;;12.80;8.40;;;1.90;99.90;;;;;;6130839;23;20024;-76
2023/03/09 01:11:48;;;;;;;14.38;8.52;;;1.70;99.90;;;;;;6106229;23;20018;-74
2023/03/09 01:14:16;;;;;;;14.98;9.05;;;2.00;99.90;;;;;;6106391;23;20013;-75
2023/03/09 01:16:42;;;;;;;16.35;10.32;;;1.90;99.90;;;;;;6083605;23;20303;-78
2023/03/09 01:19:08;;;;;;;16.85;9.57;;;1.70;99.90;;;;;;6131385;23;20018;-76
2023/03/09 01:21:33;;;;;;;16.08;9.30;;;3.00;99.90;;;;;;6107432;23;20013;-76
2023/03/09 01:24:02;;;;;;;19.42;9.65;;;1.70;99.90;;;;;;6131104;23;20068;-77
2023/03/09 01:26:28;;;;;;;15.45;8.80;;;2.80;99.90;;;;;;6130892;23;20386;-76
2023/03/09 01:28:53;;;;;;;18.02;9.75;;;2.50;99.90;;;;;;6105685;23;20009;-76
2023/03/09 01:31:19;;;;;;;18.45;9.15;;;3.50;99.90;;;;;;6130567;23;20044;-77
2023/03/09 01:33:47;;;;;;;16.40;9.50;;;2.00;99.90;;;;;;6129994;23;20021;-77
2023/03/09 01:36:16;;;;;;;16.65;10.38;;;3.40;99.90;;;;;;6106355;23;20010;-79
2023/03/09 01:38:43;;;;;;;15.63;9.13;;;1.70;99.90;;;;;;6154741;23;20022;-75
2023/03/09 01:41:10;;;;;;;19.45;9.05;;;1.80;99.90;;;;;;6130882;23;20040;-76
2023/03/09 01:43:41;;;;;;;13.73;8.23;;;3.00;99.90;;;;;;6083223;23;20014;-75
2023/03/09 01:46:30;;;;;;;17.42;8.43;;;1.50;99.90;;;;;;6132329;23;20022;-75
2023/03/09 01:48:56;;;;;;;13.50;8.63;;;1.50;99.90;;;;;;6133546;23;20263;-74
2023/03/09 01:51:26;;;;;;;15.82;8.07;;;1.50;99.90;;;;;;6133242;23;20021;-75
2023/03/09 01:53:52;;;;;;;15.15;8.40;;;3.20;99.90;;;;;;6109166;23;20049;-74
2023/03/09 01:56:20;;;;;;;15.02;9.13;;;2.10;99.90;;;;;;6109239;23;20269;-76
2023/03/09 01:58:48;;;;;;;14.27;8.30;;;1.50;99.90;;;;;;6133530;23;20024;-76
2023/03/09 02:01:15;;;;;;;12.73;7.35;;;1.40;99.90;;;;;;6109504;23;20300;-75
2023/03/09 02:03:46;;;;;;;13.63;8.05;;;3.10;99.90;;;;;;6133416;23;20026;-77
2023/03/09 02:06:17;;;;;;;14.05;8.07;;;1.50;99.90;;;;;;6108325;23;20010;-76
2023/03/09 02:09:26;;;;;;;13.90;7.82;;;1.40;99.90;;;;;;6108875;23;20014;-76
2023/03/09 02:11:52;;;;;;;12.90;8.20;;;1.30;99.90;;;;;;6133129;23;20022;-75
2023/03/09 02:14:19;;;;;;;15.10;8.38;;;1.10;99.90;;;;;;6108982;23;20272;-76
2023/03/09 02:16:45;;;;;;;13.77;8.32;;;1.70;99.90;;;;;;6084465;23;20010;-76
2023/03/09 02:19:28;;;;;;;14.90;8.50;;;1.20;99.90;;;;;;6133791;23;20169;-74
2023/03/09 02:21:55;;;;;;;16.88;9.23;;;1.30;99.90;;;;;;6132749;23;20345;-74
2023/03/09 02:24:35;;;;;;;14.60;9.07;;;1.20;99.90;;;;;;6085359;23;20056;-75
2023/03/09 02:27:23;;;;;;;15.23;9.55;;;2.70;99.90;;;;;;6131933;23;20020;-76
2023/03/09 02:29:49;;;;;;;17.55;10.00;;;2.60;99.90;;;;;;6108528;23;20293;-76
2023/03/09 02:32:15;;;;;;;21.15;10.45;;;3.00;99.90;;;;;;6133124;23;20014;-76
2023/03/09 02:34:41;;;;;;;19.52;11.63;;;3.20;99.90;;;;;;6133043;23;20069;-77
2023/03/09 02:37:23;;;;;;;20.23;10.95;;;2.50;99.90;;;;;;6133223;23;20010;-75
2023/03/09 02:39:50;;;;;;;22.33;11.45;;;1.30;99.90;;;;;;6132650;23;20018;-75
2023/03/09 02:42:17;;;;;;;18.27;11.32;;;1.10;99.90;;;;;;6157954;23;20017;-77
2023/03/09 02:44:43;;;;;;;15.85;9.38;;;1.10;99.90;;;;;;6133230;23;20233;-76
2023/03/09 02:47:18;;;;;;;17.05;9.90;;;3.00;99.90;;;;;;6132823;23;20028;-77
2023/03/09 02:49:44;;;;;;;15.82;9.35;;;0.80;99.90;;;;;;6132750;23;20040;-76
2023/03/09 02:52:10;;;;;;;16.00;9.55;;;2.00;99.90;;;;;;6108635;23;20300;-77
2023/03/09 02:54:36;;;;;;;17.08;10.32;;;0.80;99.90;;;;;;6109028;23;20065;-76
2023/03/09 02:57:02;;;;;;;17.75;10.57;;;0.70;99.90;;;;;;6106365;23;20018;-77
2023/03/09 02:59:27;;;;;;;16.55;9.50;;;0.60;99.90;;;;;;6132591;23;20025;-76
2023/03/09 03:01:53;;;;;;;16.50;9.60;;;0.40;99.90;;;;;;6132232;23;20013;-76
2023/03/09 03:04:19;;;;;;;17.73;10.38;;;0.40;99.90;;;;;;6107875;23;20090;-76
2023/03/09 03:06:45;;;;;;;18.95;10.15;;;0.60;99.90;;;;;;6107266;23;20022;-76
2023/03/09 03:09:10;;;;;;;21.73;12.55;;;1.30;99.90;;;;;;6108225;23;20021;-76
2023/03/09 03:11:36;;;;;;;21.30;11.23;;;2.70;99.90;;;;;;6133388;23;20213;-77
2023/03/09 03:14:02;;;;;;;19.88;11.43;;;1.60;99.90;;;;;;6132232;23;20021;-77
2023/03/09 03:16:28;;;;;;;24.55;11.70;;;0.50;99.90;;;;;;6133681;23;20315;-75
2023/03/09 03:18:53;;;;;;;25.52;12.05;;;0.50;99.90;;;;;;6132967;23;20208;-76
2023/03/09 03:21:19;;;;;;;24.08;13.07;;;2.70;99.90;;;;;;6133850;23;20010;-75
2023/03/09 03:23:45;;;;;;;21.60;11.98;;;1.00;99.90;;;;;;6108653;23;20013;-76
2023/03/09 03:26:11;;;;;;;28.00;14.40;;;2.40;99.90;;;;;;6109046;23;20018;-76
2023/03/09 03:28:37;;;;;;;25.23;13.90;;;2.10;99.90;;;;;;6156193;23;20489;-76
2023/03/09 03:31:04;;;;;;;23.08;12.85;;;0.90;99.90;;;;;;6157358;23;20014;-77
2023/03/09 03:33:30;;;;;;;25.92;14.50;;;0.80;99.90;;;;;;6157039;23;20014;-75
2023/03/09 03:35:56;;;;;;;24.60;12.80;;;2.90;99.90;;;;;;6132457;23;20364;-75
2023/03/09 03:38:22;;;;;;;24.90;13.10;;;3.00;99.90;;;;;;6156881;23;20037;-75
2023/03/09 03:40:48;;;;;;;23.40;13.45;;;1.10;99.90;;;;;;6131515;23;20040;-76
2023/03/09 03:43:14;;;;;;;26.85;13.75;;;2.60;99.90;;;;;;6157091;23;20022;-76
2023/03/09 03:45:40;;;;;;;28.75;14.43;;;1.20;99.90;;;;;;6084576;23;20029;-78
2023/03/09 03:48:06;;;;;;;25.50;13.77;;;2.20;99.90;;;;;;6156929;23;20021;-76
2023/03/09 03:50:31;;;;;;;24.90;13.80;;;1.30;99.90;;;;;;6108047;23;20020;-78
2023/03/09 03:52:57;;;;;;;30.05;14.77;;;2.80;99.90;;;;;;6132202;23;20018;-77
2023/03/09 03:55:23;;;;;;;26.30;13.73;;;1.30;99.90;;;;;;6108350;23;20010;-76
2023/03/09 03:57:49;;;;;;;30.23;15.07;;;1.40;99.90;;;;;;6131705;23;20017;-76
2023/03/09 04:00:17;;;;;;;26.17;13.75;;;2.70;99.90;;;;;;6132478;23;20053;-75
2023/03/09 04:02:43;;;;;;;26.35;14.48;;;1.30;99.90;;;;;;6132391;23;20014;-77
2023/03/09 04:05:09;;;;;;;29.45;14.65;;;1.30;99.90;;;;;;6131458;23;20013;-76
2023/03/09 04:07:35;;;;;;;27.70;15.25;;;1.30;99.90;;;;;;6132664;23;20021;-76
2023/03/09 04:10:00;;;;;;;25.23;13.23;;;1.40;99.90;;;;;;6131510;23;20233;-76
2023/03/09 04:12:26;;;;;;;28.15;15.20;;;1.10;99.90;;;;;;6132448;23;20045;-75
2023/03/09 04:14:52;;;;;;;29.40;15.80;;;1.20;99.90;;;;;;6107392;23;20009;-75
2023/03/09 04:17:18;;;;;;;22.88;12.73;;;1.20;99.90;;;;;;6132623;23;20033;-77
2023/03/09 04:19:43;;;;;;;26.48;14.45;;;1.40;99.90;;;;;;6083340;23;20010;-78
2023/03/09 04:22:10;;;;;;;25.30;13.05;;;2.90;99.90;;;;;;6107880;23;20018;-76
2023/03/09 04:24:35;;;;;;;28.10;14.30;;;2.00;99.90;;;;;;6132617;23;20073;-76
2023/03/09 04:27:02;;;;;;;27.00;14.32;;;3.00;99.90;;;;;;6131896;23;20009;-76
2023/03/09 04:29:27;;;;;;;24.88;14.00;;;1.20;99.90;;;;;;6107856;23;20009;-76
2023/03/09 04:31:53;;;;;;;26.73;13.80;;;1.60;99.90;;;;;;6107299;23;20328;-75
2023/03/09 04:34:18;;;;;;;24.80;13.68;;;1.90;99.90;;;;;;6083644;23;20316;-77
2023/03/09 04:36:44;;;;;;;24.90;13.93;;;2.70;99.90;;;;;;6108030;23;20032;-76
2023/03/09 04:39:10;;;;;;;22.88;12.05;;;1.20;99.90;;;;;;6156545;23;20022;-77
2023/03/09 04:41:36;;;;;;;26.33;14.13;;;1.30;99.90;;;;;;6106597;23;20010;-75
2023/03/09 04:44:02;;;;;;;24.33;14.30;;;3.50;99.90;;;;;;6107174;23;20013;-76
2023/03/09 04:46:28;;;;;;;22.88;12.73;;;1.50;99.90;;;;;;6107069;23;20017;-76
2023/03/09 04:48:53;;;;;;;22.75;12.70;;;1.40;99.90;;;;;;6155949;23;20014;-79
2023/03/09 04:51:20;;;;;;;23.92;14.15;;;1.50;99.90;;;;;;6106881;23;20056;-79
2023/03/09 04:53:45;;;;;;;21.65;12.05;;;1.20;99.90;;;;;;6131762;23;20013;-77
2023/03/09 04:56:11;;;;;;;21.05;13.15;;;2.90;99.90;;;;;;6131685;23;20318;-75
2023/03/09 04:58:37;;;;;;;25.10;13.23;;;1.10;99.90;;;;;;6107243;23;20025;-75
2023/03/09 05:01:02;;;;;;;23.13;12.60;;;1.20;99.90;;;;;;6130652;23;20026;-74
2023/03/09 05:03:29;;;;;;;20.77;12.57;;;1.30;99.90;;;;;;6107305;23;20014;-73
2023/03/09 05:05:54;;;;;;;20.63;12.25;;;1.40;99.90;;;;;;6131010;23;20017;-73
2023/03/09 05:08:20;;;;;;;24.80;12.75;;;1.90;99.90;;;;;;6107492;23;20036;-77
2023/03/09 05:10:46;;;;;;;25.10;13.95;;;1.70;99.90;;;;;;6106912;23;20021;-75
2023/03/09 05:13:13;;;;;;;22.60;12.57;;;3.00;99.90;;;;;;6130284;23;20362;-78
2023/03/09 05:15:40;;;;;;;20.90;11.93;;;2.00;99.90;;;;;;6131723;23;20041;-77
2023/03/09 05:18:07;;;;;;;23.05;13.20;;;1.40;99.90;;;;;;6107076;23;20009;-74
2023/03/09 05:20:33;;;;;;;23.38;13.23;;;1.10;99.90;;;;;;6131840;23;20041;-74
2023/03/09 05:23:00;;;;;;;26.27;14.50;;;1.10;99.90;;;;;;6131032;23;20021;-77
2023/03/09 05:25:26;;;;;;;23.40;13.32;;;1.10;99.90;;;;;;6156221;23;20077;-77
2023/03/09 05:27:52;;;;;;;22.60;12.27;;;2.30;99.90;;;;;;6131546;23;20029;-76
2023/03/09 05:30:19;;;;;;;23.48;14.00;;;1.20;99.90;;;;;;6131739;23;20069;-76
2023/03/09 05:32:45;;;;;;;23.10;13.88;;;1.30;99.90;;;;;;6131418;23;20014;-75
2023/03/09 05:35:11;;;;;;;23.45;14.05;;;1.30;99.90;;;;;;6107292;23;20065;-75
2023/03/09 05:37:37;;;;;;;24.75;13.43;;;2.40;99.90;;;;;;6131850;23;20025;-74
2023/03/09 05:40:07;;;;;;;23.23;13.80;;;1.40;99.90;;;;;;6106673;23;20327;-74
2023/03/09 05:42:33;;;;;;;23.20;12.98;;;1.30;99.90;;;;;;6131528;23;20072;-76
2023/03/09 05:45:00;;;;;;;25.02;14.15;;;1.50;99.90;;;;;;6130783;23;20025;-74
2023/03/09 05:47:26;;;;;;;21.33;13.20;;;2.00;99.90;;;;;;6131868;23;20022;-76
2023/03/09 05:49:51;;;;;;;26.38;14.68;;;1.00;99.90;;;;;;6131611;23;20049;-75
2023/03/09 05:52:17;;;;;;;24.00;13.32;;;1.30;99.90;;;;;;6130916;23;20208;-73
2023/03/09 05:54:43;;;;;;;25.67;14.00;;;1.10;99.90;;;;;;6131548;23;20018;-73
2023/03/09 05:57:12;;;;;;;23.17;12.88;;;1.00;99.90;;;;;;6131261;23;20209;-74
2023/03/09 05:59:38;;;;;;;22.83;12.75;;;1.50;99.90;;;;;;6107016;23;20032;-72
2023/03/09 06:02:27;;;;;;;23.42;13.98;;;1.00;99.90;;;;;;6131573;23;20018;-77
2023/03/09 06:04:53;;;;;;;20.73;12.30;;;1.50;99.90;;;;;;6155827;23;20293;-72
2023/03/09 06:07:19;;;;;;;22.45;13.77;;;1.70;99.90;;;;;;6106777;23;20017;-75
2023/03/09 06:09:44;;;;;;;24.85;13.95;;;2.80;99.90;;;;;;6131206;23;20519;-76
2023/03/09 06:12:10;;;;;;;24.08;13.98;;;2.60;99.90;;;;;;6105935;23;20312;-73
2023/03/09 06:14:36;;;;;;;26.60;13.57;;;2.20;99.90;;;;;;6130253;23;20010;-74
2023/03/09 06:17:03;;;;;;;22.23;13.52;;;2.70;99.90;;;;;;6105865;23;20017;-76
2023/03/09 06:19:29;;;;;;;21.33;11.98;;;1.30;99.90;;;;;;6106991;23;20297;-76
2023/03/09 06:21:55;;;;;;;26.25;13.13;;;1.30;99.90;;;;;;6106581;23;20065;-73
2023/03/09 06:24:20;;;;;;;24.10;13.65;;;1.30;99.90;;;;;;6106477;23;20508;-74
2023/03/09 06:26:46;;;;;;;22.42;13.23;;;1.30;99.90;;;;;;6106985;23;20028;-77
2023/03/09 06:29:12;;;;;;;20.35;12.98;;;1.30;99.90;;;;;;6106550;23;20045;-74
2023/03/09 06:31:38;;;;;;;22.98;12.07;;;1.60;99.90;;;;;;6082896;23;20014;-74
2023/03/09 06:34:03;;;;;;;21.42;13.10;;;1.60;99.90;;;;;;6108102;23;20022;-75
2023/03/09 06:36:29;;;;;;;19.77;12.18;;;3.00;99.90;;;;;;6107774;23;20315;-73
2023/03/09 06:38:55;;;;;;;20.38;12.45;;;1.80;99.90;;;;;;6108719;23;20044;-75
2023/03/09 06:41:29;;;;;;;24.98;13.57;;;1.10;99.90;;;;;;6107944;23;20017;-74
2023/03/09 06:43:55;;;;;;;23.97;13.27;;;1.40;99.90;;;;;;6133044;23;20018;-76
2023/03/09 06:46:21;;;;;;;22.83;13.38;;;3.20;99.90;;;;;;6107592;23;20355;-78
2023/03/09 06:48:47;;;;;;;25.40;14.77;;;2.70;99.90;;;;;;6132796;23;20013;-75
2023/03/09 06:51:12;;;;;;;21.92;13.25;;;1.50;99.90;;;;;;6108036;23;20300;-75
2023/03/09 06:53:38;;;;;;;22.00;13.30;;;1.60;99.90;;;;;;6108516;23;20056;-76
2023/03/09 06:56:04;;;;;;;20.92;13.38;;;1.30;99.90;;;;;;6132123;23;20021;-75
2023/03/09 06:58:31;;;;;;;23.75;15.05;;;1.50;99.90;;;;;;6132596;23;20024;-76
2023/03/09 07:00:56;;;;;;;23.50;15.95;;;2.30;99.90;;;;;;6108401;23;20018;-77
2023/03/09 07:03:22;;;;;;;22.88;15.70;;;3.60;99.90;;;;;;6084289;23;20423;-77
2023/03/09 07:05:48;;;;;;;28.65;21.20;;;2.90;99.90;;;;;;6132329;23;20022;-74
2023/03/09 07:08:14;;;;;;;25.98;19.48;;;3.10;99.90;;;;;;6131988;23;20013;-76
2023/03/09 07:10:40;;;;;;;21.15;14.25;;;3.90;99.90;;;;;;6132329;23;20021;-75
2023/03/09 07:13:10;;;;;;;20.17;12.70;;;1.80;99.90;;;;;;6104435;23;20021;-75
2023/03/09 07:15:36;;;;;;;21.13;12.55;;;2.70;99.90;;;;;;6155982;23;20010;-74
2023/03/09 07:18:02;;;;;;;20.33;13.02;;;1.70;99.90;;;;;;6106062;23;20352;-76
2023/03/09 07:20:30;;;;;;;20.13;12.35;;;1.70;99.90;;;;;;6108276;23;20044;-75
2023/03/09 07:22:56;;;;;;;20.77;13.63;;;1.70;99.90;;;;;;6132007;23;20009;-75
2023/03/09 07:25:21;;;;;;;18.95;11.20;;;2.50;99.90;;;;;;6107712;23;20061;-75
2023/03/09 07:27:48;;;;;;;18.17;12.00;;;1.90;99.90;;;;;;6106810;23;20014;-75
2023/03/09 07:30:15;;;;;;;20.17;12.43;;;2.40;99.90;;;;;;6107605;23;20022;-76
2023/03/09 07:32:40;;;;;;;20.23;12.57;;;2.20;99.90;;;;;;6107137;23;20014;-76
2023/03/09 07:35:07;;;;;;;24.10;12.73;;;2.00;99.90;;;;;;6107788;23;20010;-76
2023/03/09 07:37:32;;;;;;;19.88;12.15;;;2.30;99.90;;;;;;6107867;23;20312;-76
2023/03/09 07:39:58;;;;;;;17.75;11.93;;;2.30;99.90;;;;;;6108136;23;20017;-75
2023/03/09 07:42:24;;;;;;;18.70;11.93;;;2.50;99.90;;;;;;6107495;23;20010;-74
2023/03/09 07:44:52;;;;;;;18.88;11.35;;;2.50;99.90;;;;;;6131155;23;20017;-74
2023/03/09 07:47:18;;;;;;;17.63;12.20;;;2.50;99.90;;;;;;6132369;23;20010;-77
2023/03/09 07:49:45;;;;;;;16.40;10.50;;;2.80;99.90;;;;;;6131932;23;20025;-76
2023/03/09 07:52:11;;;;;;;16.75;10.60;;;2.80;99.90;;;;;;6130697;23;20016;-78
2023/03/09 07:54:37;;;;;;;14.95;10.18;;;2.90;99.90;;;;;;6131024;23;20185;-76
2023/03/09 07:57:04;;;;;;;14.40;9.45;;;2.90;99.90;;;;;;6130811;23;20010;-77
2023/03/09 07:59:30;;;;;;;15.38;9.63;;;2.90;99.90;;;;;;6082355;23;20025;-77
2023/03/09 08:01:58;;;;;;;14.57;10.20;;;2.80;99.90;;;;;;6155779;23;20081;-76
2023/03/09 08:04:25;;;;;;;17.55;10.38;;;4.30;99.90;;;;;;6106785;23;20014;-78
2023/03/09 08:06:51;;;;;;;14.75;10.07;;;2.90;99.90;;;;;;6131418;23;20315;-77
2023/03/09 08:09:17;;;;;;;14.90;9.90;;;3.10;99.90;;;;;;6107316;23;20048;-78
2023/03/09 08:11:43;;;;;;;14.43;9.77;;;3.10;99.90;;;;;;6107619;23;20014;-77
2023/03/09 08:14:10;;;;;;;16.63;9.18;;;3.10;99.90;;;;;;6131179;23;20229;-78
2023/03/09 08:16:36;;;;;;;16.23;9.73;;;3.40;99.90;;;;;;6083740;23;20170;-77
2023/03/09 08:19:01;;;;;;;13.20;8.57;;;3.20;99.90;;;;;;6108063;23;20111;-79
2023/03/09 08:21:27;;;;;;;16.65;9.35;;;3.40;99.90;;;;;;6106957;23;20017;-78
2023/03/09 08:23:53;;;;;;;14.63;9.52;;;3.40;99.90;;;;;;6083606;23;20029;-76
2023/03/09 08:26:18;;;;;;;15.20;8.85;;;2.50;99.90;;;;;;6130537;23;20049;-77
2023/03/09 08:28:45;;;;;;;13.50;8.68;;;3.20;99.90;;;;;;6107734;23;20048;-77
2023/03/09 08:31:14;;;;;;;13.98;8.75;;;3.40;99.90;;;;;;6107272;23;20041;-78
2023/03/09 08:33:40;;;;;;;13.52;9.13;;;4.70;99.90;;;;;;6083884;23;20076;-78
2023/03/09 08:36:11;;;;;;;13.07;8.90;;;3.30;99.90;;;;;;6106483;23;20192;-76
2023/03/09 08:38:44;;;;;;;11.98;7.97;;;3.20;99.90;;;;;;6107181;23;20287;-78
2023/03/09 08:41:10;;;;;;;14.25;8.50;;;3.20;99.90;;;;;;6106990;23;20046;-77
2023/03/09 08:43:36;;;;;;;11.50;7.90;;;3.10;99.90;;;;;;6107434;23;20014;-77
2023/03/09 08:46:02;;;;;;;10.80;7.60;;;3.30;99.90;;;;;;6130750;23;20022;-78
2023/03/09 08:48:27;;;;;;;12.85;8.57;;;3.80;99.90;;;;;;6083373;23;20014;-76
2023/03/09 08:50:53;;;;;;;14.80;8.75;;;3.90;99.90;;;;;;6107533;23;20014;-77
2023/03/09 08:53:22;;;;;;;10.85;7.55;;;3.40;99.90;;;;;;6131471;23;20026;-78
2023/03/09 08:55:51;;;;;;;10.88;7.40;;;3.50;99.90;;;;;;6106120;23;20312;-77
2023/03/09 08:58:16;;;;;;;10.38;7.20;;;3.50;99.90;;;;;;6106673;23;20030;-77
2023/03/09 09:00:42;;;;;;;12.77;8.43;;;3.90;99.90;;;;;;6107033;23;20025;-78
2023/03/09 09:03:08;;;;;;;15.07;8.57;;;3.70;99.90;;;;;;6131579;23;20029;-78
2023/03/09 09:05:35;;;;;;;11.00;7.43;;;4.00;99.90;;;;;;6106251;23;20387;-75
2023/03/09 09:08:00;;;;;;;24.38;11.20;;;4.20;99.90;;;;;;6131446;23;20017;-74
2023/03/09 09:10:26;;;;;;;15.82;8.75;;;4.30;99.90;;;;;;6106710;23;20080;-74
2023/03/09 09:12:52;;;;;;;13.38;7.28;;;4.30;99.90;;;;;;6129171;23;20014;-74
2023/03/09 09:15:18;;;;;;;16.95;8.20;;;4.20;99.90;;;;;;6130905;23;20017;-74
2023/03/09 09:17:43;;;;;;;12.68;8.18;;;4.40;99.90;;;;;;6106699;23;20037;-73
2023/03/09 09:20:09;;;;;;;11.98;7.22;;;4.50;99.90;;;;;;6130922;23;20101;-74
2023/03/09 09:22:35;;;;;;;9.73;6.57;;;4.30;99.90;;;;;;6082262;23;20013;-75
2023/03/09 09:25:02;;;;;;;12.20;6.78;;;4.40;99.90;;;;;;6129658;23;20550;-75
2023/03/09 09:27:28;;;;;;;10.48;6.32;;;4.10;99.90;;;;;;6055079;23;20049;-75
2023/03/09 09:29:53;;;;;;;14.55;7.40;;;4.00;99.90;;;;;;6129106;23;20077;-74
2023/03/09 09:32:20;;;;;;;13.27;7.18;;;4.20;99.90;;;;;;6104896;23;20300;-74
2023/03/09 09:34:46;;;;;;;10.13;6.78;;;4.20;99.90;;;;;;6106428;23;20118;-78
2023/03/09 09:37:12;;;;;;;9.75;6.90;;;4.30;99.90;;;;;;6130184;23;20022;-76
2023/03/09 09:39:38;;;;;;;13.85;7.72;;;4.40;99.90;;;;;;6106815;23;20197;-75
2023/03/09 09:42:29;;;;;;;12.00;7.15;;;4.50;99.90;;;;;;6106390;23;20312;-76
2023/03/09 09:44:57;;;;;;;10.98;7.28;;;4.60;99.90;;;;;;6111512;23;20209;-73
2023/03/09 09:47:29;;;;;;;10.55;7.55;;;4.70;99.90;;;;;;6130089;23;20208;-76
2023/03/09 09:50:00;;;;;;;8.77;6.35;;;4.50;99.90;;;;;;6129184;23;20024;-76
2023/03/09 09:52:44;;;;;;;15.25;7.18;;;4.30;99.90;;;;;;6104526;23;20010;-74
2023/03/09 09:55:17;;;;;;;9.50;5.93;;;4.30;99.90;;;;;;6105010;23;20307;-75
2023/03/09 09:57:59;;;;;;;10.02;6.60;;;4.30;99.90;;;;;;6128357;23;20498;-74
2023/03/09 10:00:34;;;;;;;7.47;5.32;;;4.60;99.90;;;;;;6128152;23;20032;-79
2023/03/09 10:03:05;;;;;;;8.52;6.47;;;4.70;99.90;;;;;;6128192;23;20029;-74
2023/03/09 10:05:37;;;;;;;10.35;6.43;;;4.80;99.90;;;;;;6125208;23;20028;-75
2023/03/09 10:08:22;;;;;;;9.88;6.38;;;4.70;99.90;;;;;;6130474;23;20293;-72
2023/03/09 10:10:48;;;;;;;;;;;4.60;99.90;;;;;;6131177;23;20350;-75
2023/03/09 10:13:30;;;;;;;29.98;13.65;;;5.00;99.90;;;;;;6129456;23;19940;-75
2023/03/09 10:15:58;;;;;;;16.95;8.10;;;5.00;99.90;;;;;;6107149;23;20073;-75
2023/03/09 10:18:36;;;;;;;59.33;26.35;;;5.10;99.90;;;;;;6130982;23;20010;-74
2023/03/09 10:21:04;;;;;;;13.90;8.07;;;4.90;99.90;;;;;;6106681;23;20017;-74
2023/03/09 10:23:33;;;;;;;26.40;14.15;;;4.70;99.90;;;;;;6130321;23;20014;-75
2023/03/09 10:26:05;;;;;;;11.25;6.57;;;4.60;99.90;;;;;;6128091;23;20068;-74
2023/03/09 10:28:39;;;;;;;11.10;7.25;;;4.50;99.90;;;;;;6125197;23;20471;-75
2023/03/09 10:31:18;;;;;;;9.90;6.40;;;4.60;99.90;;;;;;6107385;23;20296;-76
2023/03/09 10:33:55;;;;;;;9.38;6.72;;;4.50;99.90;;;;;;6107774;23;20052;-74
2023/03/09 10:36:29;;;;;;;11.90;7.43;;;4.80;99.90;;;;;;6106990;23;20021;-75
2023/03/09 10:38:56;;;;;;;13.40;8.88;;;5.00;99.90;;;;;;6108317;23;20010;-74
2023/03/09 10:41:22;;;;;;;13.55;7.18;;;4.80;99.90;;;;;;6107631;23;20292;-74
2023/03/09 10:43:49;;;;;;;9.77;5.85;;;4.90;99.90;;;;;;6107939;23;20013;-75
2023/03/09 10:46:18;;;;;;;13.40;8.63;;;5.00;99.90;;;;;;6132287;23;20304;-74
2023/03/09 10:48:46;;;;;;;10.60;6.22;;;4.90;99.90;;;;;;6132042;23;20247;-74
2023/03/09 10:51:30;;;;;;;8.40;5.22;;;5.10;99.90;;;;;;6108234;23;20021;-74
2023/03/09 10:53:57;;;;;;;7.10;4.80;;;4.90;99.90;;;;;;6107651;23;20135;-74
2023/03/09 10:56:28;;;;;;;7.50;5.55;;;5.00;99.90;;;;;;6131821;23;20014;-74
2023/03/09 10:59:03;;;;;;;7.40;5.28;;;4.90;99.90;;;;;;6083044;23;20037;-73
2023/03/09 11:01:29;;;;;;;8.73;5.35;;;5.00;99.90;;;;;;6131130;23;20010;-74
2023/03/09 11:03:55;;;;;;;7.43;5.25;;;4.90;99.90;;;;;;6131706;23;20108;-74
2023/03/09 11:06:44;;;;;;;7.85;6.03;;;4.90;99.90;;;;;;6131803;23;20216;-76
2023/03/09 11:09:14;;;;;;;7.63;5.40;;;5.00;99.90;;;;;;6128229;23;20353;-75
2023/03/09 11:11:42;;;;;;;8.43;5.15;;;5.00;99.90;;;;;;6105601;23;20014;-75
2023/03/09 11:14:21;;;;;;;9.70;5.35;;;5.00;99.90;;;;;;6131861;23;20018;-75
2023/03/09 11:16:55;;;;;;;8.05;5.25;;;5.20;99.90;;;;;;6132056;23;20021;-74
2023/03/09 11:19:21;;;;;;;7.18;5.53;;;5.30;99.90;;;;;;6129578;23;20010;-75
2023/03/09 11:21:50;;;;;;;6.32;4.88;;;5.20;99.90;;;;;;6059235;23;20072;-74
2023/03/09 11:24:17;;;;;;;8.07;5.43;;;5.10;99.90;;;;;;6132013;23;20322;-75
2023/03/09 11:26:50;;;;;;;8.82;5.22;;;5.20;99.90;;;;;;6131252;23;20193;-75
2023/03/09 11:29:22;;;;;;;7.03;5.70;;;5.10;99.90;;;;;;6130030;23;20049;-77
2023/03/09 11:31:48;;;;;;;9.00;5.70;;;5.10;99.90;;;;;;6131665;23;20041;-74
2023/03/09 11:34:25;;;;;;;7.80;5.15;;;5.00;99.90;;;;;;6107550;23;20029;-75
2023/03/09 11:37:12;;;;;;;9.13;5.47;;;5.00;99.90;;;;;;6131104;23;20077;-76
2023/03/09 11:39:47;;;;;;;6.93;5.13;;;5.00;99.90;;;;;;6104983;23;20025;-75
2023/03/09 11:42:17;;;;;;;8.43;5.38;;;4.90;99.90;;;;;;6130277;23;20015;-74
2023/03/09 11:44:45;;;;;;;8.18;5.28;;;5.00;99.90;;;;;;6130920;23;20013;-73
2023/03/09 11:47:33;;;;;;;10.05;5.68;;;4.90;99.90;;;;;;6131149;23;20018;-76
2023/03/09 11:50:05;;;;;;;7.45;5.20;;;4.90;99.90;;;;;;6130321;23;20022;-74
2023/03/09 11:52:49;;;;;;;8.18;4.70;;;5.00;99.90;;;;;;6128022;23;20196;-73
2023/03/09 11:55:20;;;;;;;7.38;5.10;;;4.90;99.90;;;;;;6131299;23;20252;-76
2023/03/09 11:57:49;;;;;;;10.00;4.95;;;4.90;99.90;;;;;;6131184;23;20120;-76
2023/03/09 12:00:20;;;;;;;6.35;5.00;;;5.00;99.90;;;;;;6130369;23;20057;-75
2023/03/09 12:03:04;;;;;;;7.80;5.38;;;4.90;99.90;;;;;;6106905;23;20026;-75
2023/03/09 12:05:41;;;;;;;7.88;4.85;;;4.90;99.90;;;;;;6131320;23;20024;-74
2023/03/09 12:08:18;;;;;;;8.45;5.70;;;5.00;99.90;;;;;;6131220;23;20049;-75
2023/03/09 12:10:52;;;;;;;22.05;11.63;;;4.90;99.90;;;;;;6130678;23;20013;-74
2023/03/09 12:13:26;;;;;;;11.32;6.60;;;4.90;99.90;;;;;;6155393;23;20025;-75
2023/03/09 12:16:00;;;;;;;10.02;6.63;;;5.00;99.90;;;;;;6131366;23;20021;-74
2023/03/09 12:18:44;;;;;;;10.87;7.33;;;5.00;99.90;;;;;;6130630;23;20009;-74
2023/03/09 12:21:11;;;;;;;12.23;9.70;;;4.90;99.90;;;;;;6130541;23;20192;-74
2023/03/09 12:23:37;;;;;;;8.40;6.57;;;4.90;99.90;;;;;;6082480;23;20021;-74
2023/03/09 12:26:04;;;;;;;8.25;6.10;;;4.90;99.90;;;;;;6131823;23;20309;-74
2023/03/09 12:28:30;;;;;;;9.70;5.70;;;4.90;99.90;;;;;;6125716;23;20491;-75
2023/03/09 12:30:57;;;;;;;8.18;5.53;;;4.80;99.90;;;;;;6128656;23;20021;-75
2023/03/09 12:33:41;;;;;;;6.80;5.15;;;4.90;99.90;;;;;;6105745;23;20014;-74
2023/03/09 12:36:39;;;;;;;8.77;5.32;;;4.80;99.90;;;;;;6130859;23;20014;-73
2023/03/09 12:39:31;;;;;;;9.88;5.93;;;4.70;99.90;;;;;;6107270;23;20045;-74
2023/03/09 12:42:16;;;;;;;10.63;6.50;;;4.70;99.90;;;;;;6129550;23;20163;-75
2023/03/09 12:44:50;;;;;;;11.43;6.45;;;4.70;99.90;;;;;;6127643;23;20018;-74
2023/03/09 12:47:37;;;;;;;8.25;6.32;;;4.70;99.90;;;;;;6129423;23;20046;-74
2023/03/09 12:50:41;;;;;;;10.18;6.07;;;4.70;99.90;;;;;;6128208;23;20040;-75